createdAt,value
2018-08-31T00:01:28.751Z,5.07
2018-08-31T00:04:35.938Z,5.03
2018-08-31T00:07:16.316Z,7.93
2018-08-31T00:12:57.849Z,5.83
2018-08-31T00:15:26.658Z,4.87
2018-08-31T00:17:55.462Z,6.80
2018-08-31T00:20:24.105Z,5.10
2018-08-31T00:22:53.002Z,7.53
2018-08-31T00:26:04.065Z,6.03
2018-08-31T00:29:49.966Z,5.57
2018-08-31T00:34:38.184Z,7.37
2018-08-31T00:39:20.450Z,5.83
2018-08-31T00:42:09.262Z,5.57
2018-08-31T00:45:49.583Z,7.10
2018-08-31T00:48:18.334Z,6.67
2018-08-31T00:50:47.463Z,6.67
2018-08-31T00:53:16.195Z,5.87
2018-08-31T00:55:44.902Z,4.63
2018-08-31T00:58:13.501Z,5.10
2018-08-31T01:00:42.209Z,5.83
2018-08-31T01:03:11.192Z,7.43
2018-08-31T01:05:39.759Z,7.23
2018-08-31T01:08:08.630Z,6.40
2018-08-31T01:10:37.166Z,6.20
2018-08-31T01:13:06.119Z,6.10
2018-08-31T01:15:34.971Z,5.93
2018-08-31T01:18:04.680Z,4.43
2018-08-31T01:20:33.343Z,5.93
2018-08-31T01:23:02.461Z,5.70
2018-08-31T01:25:33.461Z,5.27
2018-08-31T01:28:03.104Z,7.83
2018-08-31T01:30:31.673Z,5.83
2018-08-31T01:33:00.862Z,6.30
2018-08-31T01:35:29.556Z,6.23
2018-08-31T01:37:58.909Z,7.57
2018-08-31T01:40:28.085Z,7.23
2018-08-31T01:42:57.368Z,6.47
2018-08-31T01:45:26.262Z,5.73
2018-08-31T01:47:55.767Z,5.03
2018-08-31T01:50:24.655Z,6.03
2018-08-31T01:52:53.595Z,5.63
2018-08-31T01:55:27.629Z,5.43
2018-08-31T01:57:57.110Z,6.50
2018-08-31T02:00:26.378Z,7.83
2018-08-31T02:02:55.455Z,6.43
2018-08-31T02:05:24.245Z,4.50
2018-08-31T02:07:53.585Z,5.97
2018-08-31T02:10:22.239Z,10.03
2018-08-31T02:12:51.275Z,8.63
2018-08-31T02:15:20.008Z,8.07
2018-08-31T02:17:48.819Z,5.27
2018-08-31T02:20:17.834Z,5.27
2018-08-31T02:22:46.624Z,5.10
2018-08-31T02:25:15.882Z,5.83
2018-08-31T02:27:44.695Z,7.10
2018-08-31T02:30:13.378Z,7.33
2018-08-31T02:32:42.147Z,5.93
2018-08-31T02:35:11.213Z,5.67
2018-08-31T02:37:39.885Z,5.93
2018-08-31T02:40:08.641Z,5.20
2018-08-31T02:42:37.298Z,6.27
2018-08-31T02:45:06.351Z,6.83
2018-08-31T02:47:35.030Z,5.70
2018-08-31T02:50:03.982Z,5.40
2018-08-31T02:52:32.691Z,6.53
2018-08-31T02:55:01.471Z,4.30
2018-08-31T02:57:30.695Z,5.50
2018-08-31T02:59:59.414Z,6.80
2018-08-31T03:02:29.025Z,4.53
2018-08-31T03:04:57.854Z,6.00
2018-08-31T03:07:27.379Z,4.00
2018-08-31T03:09:56.107Z,4.77
2018-08-31T03:12:25.379Z,3.70
2018-08-31T03:14:53.990Z,5.43
2018-08-31T03:17:22.663Z,3.47
2018-08-31T03:19:51.290Z,3.37
2018-08-31T03:22:20.823Z,3.20
2018-08-31T03:24:49.387Z,4.30
2018-08-31T03:27:18.209Z,4.77
2018-08-31T03:29:48.144Z,6.53
2018-08-31T03:32:16.749Z,2.97
2018-08-31T03:34:45.754Z,3.63
2018-08-31T03:37:14.519Z,3.30
2018-08-31T03:39:43.806Z,3.53
2018-08-31T03:42:12.442Z,2.97
2018-08-31T03:44:41.486Z,3.90
2018-08-31T03:47:10.083Z,4.70
2018-08-31T03:49:38.801Z,2.40
2018-08-31T03:52:07.543Z,2.60
2018-08-31T03:54:36.131Z,2.40
2018-08-31T03:57:05.519Z,2.43
2018-08-31T03:59:34.313Z,2.97
2018-08-31T04:02:03.210Z,3.23
2018-08-31T04:04:31.941Z,2.43
2018-08-31T04:07:00.942Z,2.50
2018-08-31T04:09:29.733Z,1.53
2018-08-31T04:11:58.382Z,3.75
2018-08-31T04:14:27.770Z,1.90
2018-08-31T04:16:56.384Z,1.37
2018-08-31T04:19:25.479Z,2.30
2018-08-31T04:21:54.146Z,1.63
2018-08-31T04:24:24.225Z,2.47
2018-08-31T04:26:52.777Z,2.10
2018-08-31T04:29:22.173Z,1.90
2018-08-31T04:31:50.840Z,2.63
2018-08-31T04:34:20.000Z,3.23
2018-08-31T04:36:49.103Z,1.30
2018-08-31T04:39:18.105Z,1.83
2018-08-31T04:41:46.694Z,4.33
2018-08-31T04:44:15.508Z,3.37
2018-08-31T04:46:44.759Z,1.37
2018-08-31T04:49:13.463Z,1.73
2018-08-31T04:51:42.207Z,3.70
2018-08-31T04:54:10.958Z,1.63
2018-08-31T04:56:39.597Z,1.70
2018-08-31T04:59:08.583Z,1.20
2018-08-31T05:01:38.018Z,3.47
2018-08-31T05:04:06.814Z,2.30
2018-08-31T05:06:36.124Z,3.87
2018-08-31T05:09:06.943Z,2.07
2018-08-31T05:11:36.887Z,1.63
2018-08-31T05:14:05.588Z,1.53
2018-08-31T05:16:36.031Z,2.60
2018-08-31T05:19:04.891Z,3.10
2018-08-31T05:21:33.749Z,3.83
2018-08-31T05:24:02.391Z,2.33
2018-08-31T05:26:31.906Z,3.80
2018-08-31T05:29:00.604Z,2.60
2018-08-31T05:31:29.998Z,1.57
2018-08-31T05:33:58.843Z,2.73
2018-08-31T05:36:28.889Z,2.40
2018-08-31T05:38:58.045Z,2.93
2018-08-31T05:41:28.337Z,2.60
2018-08-31T05:44:03.246Z,1.50
2018-08-31T05:46:32.261Z,2.13
2018-08-31T05:49:02.128Z,2.17
2018-08-31T05:51:30.855Z,2.23
2018-08-31T05:54:00.527Z,1.40
2018-08-31T05:56:29.286Z,1.60
2018-08-31T05:58:58.488Z,1.77
2018-08-31T06:01:27.267Z,1.10
2018-08-31T06:03:55.948Z,1.30
2018-08-31T06:06:26.350Z,2.23
2018-08-31T06:08:55.088Z,1.67
2018-08-31T06:11:23.817Z,0.87
2018-08-31T06:13:52.576Z,2.53
2018-08-31T06:16:22.126Z,1.33
2018-08-31T06:18:50.955Z,1.00
2018-08-31T06:21:19.861Z,1.30
2018-08-31T06:23:48.589Z,1.67
2018-08-31T06:26:18.947Z,2.57
2018-08-31T06:28:47.605Z,1.23
2018-08-31T06:31:17.873Z,1.10
2018-08-31T06:33:46.602Z,1.70
2018-08-31T06:36:15.995Z,1.40
2018-08-31T06:38:44.586Z,1.00
2018-08-31T06:41:13.743Z,6.40
2018-08-31T06:43:42.359Z,1.00
2018-08-31T06:46:11.716Z,1.80
2018-08-31T06:48:40.326Z,1.17
2018-08-31T06:51:09.063Z,0.83
2018-08-31T06:53:37.842Z,0.57
2018-08-31T06:56:06.721Z,0.70
2018-08-31T06:58:36.191Z,0.60
2018-08-31T07:01:06.139Z,2.10
2018-08-31T07:03:36.174Z,0.60
2018-08-31T07:06:05.299Z,1.10
2018-08-31T07:08:34.234Z,0.70
2018-08-31T07:11:03.061Z,0.50
2018-08-31T07:13:31.948Z,2.10
2018-08-31T07:16:00.937Z,3.10
2018-08-31T07:18:30.626Z,1.33
2018-08-31T07:20:59.844Z,0.40
2018-08-31T07:23:28.958Z,0.50
2018-08-31T07:25:57.906Z,0.47
2018-08-31T07:28:27.091Z,0.50
2018-08-31T07:30:57.868Z,0.70
2018-08-31T07:33:26.970Z,2.07
2018-08-31T07:35:55.645Z,0.40
2018-08-31T07:38:24.307Z,1.37
2018-08-31T07:40:53.058Z,0.93
2018-08-31T07:43:22.279Z,1.20
2018-08-31T07:45:51.064Z,0.67
2018-08-31T07:48:20.107Z,0.67
2018-08-31T07:50:48.646Z,0.57
2018-08-31T07:53:17.753Z,0.70
2018-08-31T07:55:46.326Z,0.70
2018-08-31T07:58:15.205Z,3.80
2018-08-31T08:00:43.891Z,0.47
2018-08-31T08:03:12.527Z,0.60
2018-08-31T08:05:42.072Z,0.97
2018-08-31T08:08:10.769Z,2.00
2018-08-31T08:10:39.450Z,1.00
2018-08-31T08:13:08.038Z,0.77
2018-08-31T08:15:38.119Z,1.30
2018-08-31T08:18:07.082Z,1.10
2018-08-31T08:20:36.497Z,0.20
2018-08-31T08:23:05.747Z,0.70
2018-08-31T08:25:35.000Z,0.30
2018-08-31T08:28:04.753Z,0.60
2018-08-31T08:30:34.306Z,0.40
2018-08-31T08:33:03.018Z,0.30
2018-08-31T08:35:32.683Z,0.27
2018-08-31T08:38:01.390Z,0.33
2018-08-31T08:40:31.155Z,2.73
2018-08-31T08:42:59.770Z,0.50
2018-08-31T08:45:28.677Z,1.03
2018-08-31T08:47:57.638Z,1.67
2018-08-31T08:50:26.550Z,0.90
2018-08-31T08:52:55.482Z,0.73
2018-08-31T08:55:25.150Z,0.50
2018-08-31T08:57:55.436Z,1.10
2018-08-31T09:00:24.246Z,1.30
2018-08-31T09:02:53.662Z,0.43
2018-08-31T09:05:23.284Z,0.47
2018-08-31T09:07:52.466Z,1.57
2018-08-31T09:10:21.260Z,0.40
2018-08-31T09:12:51.943Z,0.50
2018-08-31T09:15:21.881Z,0.80
2018-08-31T09:17:52.326Z,0.50
2018-08-31T09:20:21.216Z,0.40
2018-08-31T09:22:49.870Z,1.70
2018-08-31T09:25:18.706Z,0.93
2018-08-31T09:27:47.986Z,1.10
2018-08-31T09:30:22.056Z,0.43
2018-08-31T09:32:50.834Z,0.80
2018-08-31T09:35:20.148Z,0.37
2018-08-31T09:37:48.983Z,0.93
2018-08-31T09:40:18.018Z,0.40
2018-08-31T09:42:46.962Z,0.30
2018-08-31T09:45:16.147Z,0.23
2018-08-31T09:47:44.821Z,0.40
2018-08-31T09:50:13.522Z,0.27
2018-08-31T09:52:42.584Z,0.30
2018-08-31T09:55:11.311Z,0.43
2018-08-31T09:57:40.362Z,0.40
2018-08-31T10:00:09.100Z,0.30
2018-08-31T10:02:38.040Z,0.40
2018-08-31T10:05:08.305Z,0.67
2018-08-31T10:07:37.747Z,0.47
2018-08-31T10:10:06.656Z,1.63
2018-08-31T10:12:35.791Z,0.50
2018-08-31T10:15:05.258Z,3.37
2018-08-31T10:17:35.723Z,2.50
2018-08-31T10:20:04.391Z,2.63
2018-08-31T10:22:33.665Z,1.23
2018-08-31T10:25:02.294Z,0.93
2018-08-31T10:27:31.343Z,1.00
2018-08-31T10:30:00.801Z,0.70
2018-08-31T10:32:29.632Z,0.80
2018-08-31T10:34:58.346Z,2.10
2018-08-31T10:37:27.503Z,0.77
2018-08-31T10:39:56.126Z,1.73
2018-08-31T10:42:24.812Z,1.13
2018-08-31T10:44:53.536Z,2.47
2018-08-31T10:47:22.259Z,0.93
2018-08-31T10:49:51.102Z,0.90
2018-08-31T10:52:19.938Z,0.70
2018-08-31T10:54:48.646Z,0.80
2018-08-31T10:57:17.310Z,1.53
2018-08-31T10:59:46.430Z,1.00
2018-08-31T11:02:15.246Z,1.30
2018-08-31T11:04:44.035Z,0.93
2018-08-31T11:07:12.781Z,1.00
2018-08-31T11:09:41.622Z,1.80
2018-08-31T11:12:10.340Z,1.63
2018-08-31T11:14:39.287Z,0.53
2018-08-31T11:17:08.735Z,0.70
2018-08-31T11:19:37.354Z,2.67
2018-08-31T11:22:06.807Z,1.27
2018-08-31T11:24:35.404Z,0.60
2018-08-31T11:27:04.483Z,0.87
2018-08-31T11:29:33.634Z,0.90
2018-08-31T11:32:02.739Z,0.97
2018-08-31T11:34:31.447Z,1.07
2018-08-31T11:37:00.353Z,0.60
2018-08-31T11:39:28.975Z,0.60
2018-08-31T11:41:58.228Z,1.17
2018-08-31T11:44:27.652Z,1.07
2018-08-31T11:46:58.986Z,1.03
2018-08-31T11:49:27.626Z,1.83
2018-08-31T11:51:56.781Z,1.20
2018-08-31T11:54:25.961Z,2.03
2018-08-31T11:56:54.971Z,0.87
2018-08-31T11:59:23.690Z,0.80
2018-08-31T12:01:52.528Z,0.80
2018-08-31T12:04:21.305Z,0.90
2018-08-31T12:06:50.154Z,1.77
2018-08-31T12:09:18.818Z,0.50
2018-08-31T12:11:47.645Z,0.60
2018-08-31T12:14:16.383Z,0.63
2018-08-31T12:16:45.374Z,0.93
2018-08-31T12:19:14.981Z,0.67
2018-08-31T12:21:43.639Z,0.47
2018-08-31T12:24:12.486Z,0.70
2018-08-31T12:26:41.017Z,0.50
2018-08-31T12:29:10.007Z,0.50
2018-08-31T12:31:38.611Z,1.40
2018-08-31T12:34:07.480Z,0.50
2018-08-31T12:36:36.335Z,0.40
2018-08-31T12:39:08.867Z,0.70
2018-08-31T12:41:37.630Z,1.03
2018-08-31T12:44:06.783Z,2.13
2018-08-31T12:46:35.398Z,1.73
2018-08-31T12:49:04.408Z,4.23
2018-08-31T12:51:33.093Z,2.63
2018-08-31T12:54:01.950Z,0.60
2018-08-31T12:56:31.826Z,0.40
2018-08-31T12:59:00.549Z,0.60
2018-08-31T13:01:29.666Z,0.97
2018-08-31T13:03:58.434Z,0.93
2018-08-31T13:06:27.273Z,0.40
2018-08-31T13:08:56.676Z,0.60
2018-08-31T13:11:25.874Z,0.77
2018-08-31T13:13:54.557Z,0.90
2018-08-31T13:16:23.598Z,0.70
2018-08-31T13:18:52.337Z,1.13
2018-08-31T13:21:21.334Z,0.37
2018-08-31T13:23:50.082Z,1.40
2018-08-31T13:26:19.231Z,0.40
2018-08-31T13:28:47.899Z,1.17
2018-08-31T13:31:16.847Z,1.10
2018-08-31T13:33:45.604Z,1.00
2018-08-31T13:36:14.174Z,0.67
2018-08-31T13:38:43.049Z,1.97
2018-08-31T13:41:12.770Z,0.30
2018-08-31T13:43:41.486Z,0.30
2018-08-31T13:46:10.235Z,1.07
2018-08-31T13:48:39.494Z,0.73
2018-08-31T13:51:09.204Z,0.60
2018-08-31T13:53:37.982Z,0.50
2018-08-31T13:56:06.713Z,0.67
2018-08-31T13:58:35.686Z,0.60
2018-08-31T14:01:04.234Z,0.50
2018-08-31T14:03:33.447Z,0.40
2018-08-31T14:06:02.192Z,0.50
2018-08-31T14:08:31.004Z,0.60
2018-08-31T14:10:59.606Z,0.30
2018-08-31T14:13:28.214Z,0.20
2018-08-31T14:15:57.234Z,0.40
2018-08-31T14:18:25.822Z,1.70
2018-08-31T14:20:54.615Z,0.30
2018-08-31T14:23:23.150Z,0.33
2018-08-31T14:25:51.950Z,0.87
2018-08-31T14:28:20.686Z,0.50
2018-08-31T14:30:49.791Z,0.37
2018-08-31T14:33:19.074Z,0.40
2018-08-31T14:35:47.918Z,0.30
2018-08-31T14:38:18.944Z,1.00
2018-08-31T14:40:49.205Z,3.23
2018-08-31T14:43:17.954Z,0.30
2018-08-31T14:45:46.726Z,1.07
2018-08-31T14:48:15.927Z,0.40
2018-08-31T14:50:44.424Z,1.43
2018-08-31T14:53:14.210Z,0.53
2018-08-31T14:55:44.026Z,0.30
2018-08-31T14:58:13.010Z,0.70
2018-08-31T15:00:41.783Z,0.20
2018-08-31T15:03:10.861Z,0.30
2018-08-31T15:05:39.606Z,0.30
2018-08-31T15:08:09.194Z,0.30
2018-08-31T15:10:37.981Z,0.30
2018-08-31T15:13:06.757Z,0.40
2018-08-31T15:15:35.334Z,0.20
2018-08-31T15:18:04.238Z,5.10
2018-08-31T15:20:33.341Z,0.30
2018-08-31T15:23:01.961Z,0.93
2018-08-31T15:25:30.684Z,0.30
2018-08-31T15:27:59.332Z,0.23
2018-08-31T15:30:28.529Z,2.23
2018-08-31T15:32:57.112Z,0.20
2018-08-31T15:35:26.514Z,1.67
2018-08-31T15:37:55.110Z,0.30
2018-08-31T15:40:24.100Z,0.17
2018-08-31T15:42:53.430Z,0.30
2018-08-31T15:45:23.891Z,0.60
2018-08-31T15:47:52.597Z,0.30
2018-08-31T15:50:23.367Z,0.30
2018-08-31T15:52:51.950Z,0.20
2018-08-31T15:55:22.074Z,0.50
2018-08-31T15:57:50.646Z,2.37
2018-08-31T16:00:19.747Z,2.87
2018-08-31T16:02:48.506Z,0.40
2018-08-31T16:05:17.115Z,0.30
2018-08-31T16:07:45.774Z,0.77
2018-08-31T16:10:14.316Z,0.30
2018-08-31T16:12:43.041Z,0.53
2018-08-31T16:15:11.654Z,1.17
2018-08-31T16:17:42.502Z,0.40
2018-08-31T16:20:11.274Z,3.37
2018-08-31T16:22:41.522Z,0.30
2018-08-31T16:25:10.400Z,0.80
2018-08-31T16:27:39.955Z,0.30
2018-08-31T16:30:08.622Z,0.40
2018-08-31T16:32:39.506Z,0.30
2018-08-31T16:35:08.362Z,0.40
2018-08-31T16:37:37.167Z,0.70
2018-08-31T16:40:06.094Z,3.67
2018-08-31T16:42:35.299Z,0.30
2018-08-31T16:45:03.962Z,1.40
2018-08-31T16:47:33.938Z,0.40
2018-08-31T16:50:02.550Z,0.50
2018-08-31T16:52:31.870Z,1.13
2018-08-31T16:55:01.182Z,0.40
2018-08-31T16:57:30.449Z,0.30
2018-08-31T16:59:59.249Z,2.30
2018-08-31T17:02:28.445Z,0.40
2018-08-31T17:04:57.123Z,0.77
2018-08-31T17:07:27.659Z,0.50
2018-08-31T17:09:56.235Z,0.77
2018-08-31T17:12:25.436Z,0.60
2018-08-31T17:14:54.612Z,0.97
2018-08-31T17:17:23.635Z,0.80
2018-08-31T17:19:52.280Z,0.97
2018-08-31T17:22:21.005Z,1.03
2018-08-31T17:24:49.557Z,0.60
2018-08-31T17:27:23.910Z,0.90
2018-08-31T17:29:52.831Z,1.23
2018-08-31T17:32:26.570Z,1.53
2018-08-31T17:35:01.705Z,0.73
2018-08-31T17:37:33.502Z,1.30
2018-08-31T17:40:02.222Z,1.77
2018-08-31T17:42:36.556Z,0.90
2018-08-31T17:45:05.281Z,1.87
2018-08-31T17:47:34.658Z,2.60
2018-08-31T17:50:03.495Z,2.17
2018-08-31T17:52:33.974Z,0.87
2018-08-31T17:55:02.755Z,1.60
2018-08-31T17:57:33.394Z,0.60
2018-08-31T18:00:02.319Z,2.10
2018-08-31T18:02:31.991Z,0.67
2018-08-31T18:05:01.919Z,2.33
2018-08-31T18:07:31.512Z,1.63
2018-08-31T18:10:00.234Z,3.00
2018-08-31T18:12:29.189Z,1.07
2018-08-31T18:14:58.213Z,1.10
2018-08-31T18:17:29.329Z,1.43
2018-08-31T18:19:59.582Z,1.13
2018-08-31T18:22:28.303Z,0.70
2018-08-31T18:24:59.666Z,2.03
2018-08-31T18:27:33.450Z,2.87
2018-08-31T18:30:04.867Z,2.00
2018-08-31T18:32:40.898Z,0.80
2018-08-31T18:35:12.704Z,2.47
2018-08-31T18:37:42.829Z,0.77
2018-08-31T18:40:15.003Z,1.30
2018-08-31T18:42:46.336Z,1.93
2018-08-31T18:45:18.268Z,4.10
2018-08-31T18:47:48.505Z,1.13
2018-08-31T18:50:28.628Z,1.90
2018-08-31T18:53:00.609Z,3.10
2018-08-31T18:55:31.996Z,4.73
2018-08-31T18:58:03.557Z,0.50
2018-08-31T19:00:35.278Z,1.37
2018-08-31T19:03:07.290Z,1.13
2018-08-31T19:05:37.477Z,2.67
2018-08-31T19:08:09.749Z,1.00
2018-08-31T19:10:42.632Z,2.63
2018-08-31T19:13:12.116Z,0.97
2018-08-31T19:15:42.902Z,1.50
2018-08-31T19:18:12.629Z,1.40
2018-08-31T19:20:43.277Z,0.60
2018-08-31T19:23:16.077Z,0.60
2018-08-31T19:25:49.348Z,1.90
2018-08-31T19:28:18.898Z,0.83
2018-08-31T19:30:52.048Z,0.63
2018-08-31T19:33:21.590Z,2.50
2018-08-31T19:35:58.274Z,2.13
2018-08-31T19:38:31.497Z,2.47
2018-08-31T19:41:01.436Z,2.63
2018-08-31T19:43:30.110Z,1.47
2018-08-31T19:46:09.498Z,1.70
2018-08-31T19:48:43.644Z,3.57
2018-08-31T19:51:16.578Z,0.87
2018-08-31T19:53:47.693Z,2.27
2018-08-31T19:58:57.478Z,1.47
2018-08-31T20:01:28.101Z,2.00
2018-08-31T20:03:58.838Z,0.80
2018-08-31T20:06:28.583Z,0.67
2018-08-31T20:08:58.785Z,1.07
2018-08-31T20:11:28.234Z,3.53
2018-08-31T20:13:57.415Z,0.70
2018-08-31T20:16:26.849Z,1.27
2018-08-31T20:18:56.643Z,0.87
2018-08-31T20:21:25.352Z,0.70
2018-08-31T20:23:54.210Z,1.17
2018-08-31T20:26:22.822Z,1.57
2018-08-31T20:28:51.836Z,1.07
2018-08-31T20:31:20.585Z,3.50
2018-08-31T20:33:49.437Z,0.70
2018-08-31T20:36:18.367Z,0.87
2018-08-31T20:38:47.127Z,0.67
2018-08-31T20:41:16.043Z,2.83
2018-08-31T20:43:44.665Z,1.83
2018-08-31T20:46:13.748Z,1.23
2018-08-31T20:48:42.526Z,0.90
2018-08-31T20:51:11.686Z,0.77
2018-08-31T20:53:40.318Z,1.37
2018-08-31T20:56:09.381Z,1.90
2018-08-31T20:58:38.266Z,0.70
2018-08-31T21:01:06.988Z,1.17
2018-08-31T21:03:35.762Z,0.50
2018-08-31T21:06:04.714Z,0.90
2018-08-31T21:08:33.320Z,2.27
2018-08-31T21:11:02.162Z,1.00
2018-08-31T21:13:31.204Z,1.97
2018-08-31T21:16:00.196Z,1.17
2018-08-31T21:18:28.982Z,1.37
2018-08-31T21:20:57.586Z,0.70
2018-08-31T21:23:26.524Z,0.83
2018-08-31T21:25:56.209Z,1.07
2018-08-31T21:28:25.227Z,0.50
2018-08-31T21:30:53.837Z,0.67
2018-08-31T21:33:22.711Z,4.33
2018-08-31T21:35:51.438Z,0.63
2018-08-31T21:38:20.158Z,0.70
2018-08-31T21:40:49.954Z,1.20
2018-08-31T21:43:18.779Z,3.17
2018-08-31T21:45:48.616Z,1.43
2018-08-31T21:48:17.434Z,1.33
2018-08-31T21:50:46.806Z,2.20
2018-08-31T21:53:15.359Z,0.60
2018-08-31T21:55:44.219Z,1.63
2018-08-31T21:58:13.071Z,1.00
2018-08-31T22:00:43.814Z,1.50
2018-08-31T22:03:13.863Z,0.70
2018-08-31T22:05:47.110Z,1.13
2018-08-31T22:08:17.840Z,1.53
2018-08-31T22:10:46.714Z,4.27
2018-08-31T22:13:15.768Z,0.70
2018-08-31T22:15:44.548Z,1.70
2018-08-31T22:18:13.562Z,2.60
2018-08-31T22:20:42.162Z,2.07
2018-08-31T22:23:10.938Z,0.63
2018-08-31T22:25:40.074Z,2.20
2018-08-31T22:28:08.909Z,2.33
2018-08-31T22:30:38.098Z,1.33
2018-08-31T22:33:06.847Z,2.20
2018-08-31T22:35:35.964Z,0.80
2018-08-31T22:38:04.833Z,1.17
2018-08-31T22:40:33.748Z,0.87
2018-08-31T22:43:02.505Z,0.70
2018-08-31T22:45:31.472Z,7.43
2018-08-31T22:48:00.026Z,2.77
2018-08-31T22:50:28.727Z,1.10
2018-08-31T22:52:57.294Z,2.33
2018-08-31T22:55:25.990Z,0.80
2018-08-31T22:57:55.025Z,2.40
2018-08-31T23:00:23.790Z,0.93
2018-08-31T23:02:53.162Z,2.90
2018-08-31T23:05:22.123Z,0.70
2018-08-31T23:07:56.230Z,0.80
2018-08-31T23:10:25.010Z,0.70
2018-08-31T23:12:53.704Z,0.57
2018-08-31T23:15:22.539Z,1.87
2018-08-31T23:17:51.728Z,2.33
2018-08-31T23:20:21.150Z,2.17
2018-08-31T23:22:50.587Z,0.77
2018-08-31T23:25:24.459Z,0.60
2018-08-31T23:27:53.082Z,4.03
2018-08-31T23:30:21.846Z,1.53
2018-08-31T23:32:50.590Z,3.97
2018-08-31T23:35:19.658Z,0.80
2018-08-31T23:37:48.433Z,0.70
2018-08-31T23:40:17.202Z,2.80
2018-08-31T23:42:46.698Z,0.90
2018-08-31T23:45:15.363Z,0.90
2018-08-31T23:47:44.946Z,1.27
2018-08-31T23:50:13.704Z,1.00
2018-08-31T23:52:42.710Z,0.90
2018-08-31T23:55:11.398Z,2.07
2018-08-31T23:57:40.421Z,2.37
